createdAt,value
2023-04-28T00:01:21.282Z,5.53
2023-04-28T00:06:23.304Z,4.70
2023-04-28T00:11:25.709Z,5.62
2023-04-28T00:16:27.840Z,5.50
2023-04-28T00:21:29.949Z,5.63
2023-04-28T00:26:32.033Z,5.65
2023-04-28T00:31:35.481Z,5.95
2023-04-28T00:36:37.639Z,6.43
2023-04-28T00:41:39.676Z,7.00
2023-04-28T00:46:41.940Z,6.85
2023-04-28T00:51:44.135Z,7.60
2023-04-28T00:56:47.088Z,7.57
2023-04-28T01:01:50.080Z,7.57
2023-04-28T01:06:52.903Z,7.12
2023-04-28T01:11:55.595Z,7.77
2023-04-28T01:16:57.723Z,7.47
2023-04-28T01:21:59.859Z,6.75
2023-04-28T01:27:02.961Z,5.83
2023-04-28T01:32:05.204Z,5.73
2023-04-28T01:37:07.294Z,5.28
2023-04-28T01:42:09.443Z,5.35
2023-04-28T01:47:11.490Z,6.27
2023-04-28T01:52:13.734Z,5.68
2023-04-28T01:57:17.521Z,5.35
2023-04-28T02:02:19.892Z,5.10
2023-04-28T02:07:22.022Z,5.20
2023-04-28T02:12:24.643Z,5.50
2023-04-28T02:17:27.019Z,5.00
2023-04-28T02:22:29.114Z,5.60
2023-04-28T02:27:31.325Z,5.32
2023-04-28T02:32:33.653Z,5.50
2023-04-28T02:37:35.993Z,7.77
2023-04-28T02:42:38.084Z,7.07
2023-04-28T02:47:40.198Z,7.10
2023-04-28T02:52:42.338Z,7.13
2023-04-28T02:57:44.463Z,7.57
2023-04-28T03:02:46.671Z,6.97
2023-04-28T03:07:48.756Z,6.60
2023-04-28T03:12:51.256Z,6.37
2023-04-28T03:17:53.480Z,5.90
2023-04-28T03:22:55.805Z,6.65
2023-04-28T03:27:57.927Z,6.73
2023-04-28T03:33:00.009Z,6.10
2023-04-28T03:38:02.363Z,5.82
2023-04-28T03:43:05.030Z,6.03
2023-04-28T03:48:07.840Z,6.47
2023-04-28T03:53:09.930Z,6.72
2023-04-28T03:58:12.048Z,6.00
2023-04-28T04:03:14.322Z,6.20
2023-04-28T04:08:17.642Z,7.10
2023-04-28T04:13:20.094Z,7.53
2023-04-28T04:18:22.230Z,7.30
2023-04-28T04:23:24.327Z,8.23
2023-04-28T04:28:26.493Z,6.72
2023-04-28T04:33:29.014Z,5.57
2023-04-28T04:38:31.139Z,5.57
2023-04-28T04:43:33.199Z,5.40
2023-04-28T04:48:35.487Z,5.70
2023-04-28T04:53:37.652Z,5.20
2023-04-28T04:58:39.744Z,5.78
2023-04-28T05:03:41.903Z,5.60
2023-04-28T05:08:44.046Z,5.43
2023-04-28T05:13:46.224Z,5.55
2023-04-28T05:18:48.434Z,5.55
2023-04-28T05:23:50.642Z,5.27
2023-04-28T05:28:52.720Z,5.80
2023-04-28T05:33:54.802Z,5.47
2023-04-28T05:38:56.979Z,5.90
2023-04-28T05:43:59.051Z,6.20
2023-04-28T05:49:01.207Z,6.43
2023-04-28T05:54:03.698Z,5.75
2023-04-28T05:59:05.840Z,6.43
2023-04-28T06:04:08.043Z,6.82
2023-04-28T06:09:10.420Z,6.07
2023-04-28T06:14:12.532Z,6.23
2023-04-28T06:19:15.518Z,6.62
2023-04-28T06:24:17.782Z,6.20
2023-04-28T06:29:20.940Z,8.07
2023-04-28T06:34:27.479Z,7.40
2023-04-28T06:39:29.813Z,7.40
2023-04-28T06:44:31.948Z,8.07
2023-04-28T06:49:34.098Z,7.53
2023-04-28T06:54:38.491Z,7.12
2023-04-28T06:59:43.870Z,6.80
2023-04-28T07:04:46.120Z,7.00
2023-04-28T07:09:48.197Z,6.57
2023-04-28T07:14:51.537Z,6.43
2023-04-28T07:19:53.612Z,5.37
2023-04-28T07:24:55.701Z,5.60
2023-04-28T07:29:57.880Z,5.00
2023-04-28T07:34:59.931Z,5.37
2023-04-28T07:40:02.143Z,6.07
2023-04-28T07:45:05.698Z,5.60
2023-04-28T07:50:08.850Z,5.25
2023-04-28T07:55:11.004Z,5.50
2023-04-28T08:00:14.051Z,5.53
2023-04-28T08:05:17.277Z,5.32
2023-04-28T08:10:19.827Z,5.00
2023-04-28T08:15:22.097Z,4.60
2023-04-28T08:20:24.933Z,4.47
2023-04-28T08:25:27.425Z,4.25
2023-04-28T08:30:30.027Z,4.03
2023-04-28T08:35:32.364Z,3.92
2023-04-28T08:40:34.447Z,4.10
2023-04-28T08:45:42.941Z,3.83
2023-04-28T08:50:50.294Z,4.50
2023-04-28T08:55:57.223Z,3.53
2023-04-28T09:00:59.314Z,3.43
2023-04-28T09:06:02.543Z,3.60
2023-04-28T09:11:09.328Z,3.62
2023-04-28T09:16:11.876Z,3.17
2023-04-28T09:21:13.942Z,2.30
2023-04-28T09:26:16.154Z,2.28
2023-04-28T09:31:28.655Z,2.90
2023-04-28T09:36:31.020Z,2.90
2023-04-28T09:41:44.195Z,3.00
2023-04-28T09:46:46.863Z,2.30
2023-04-28T09:51:50.557Z,2.67
2023-04-28T09:56:54.085Z,3.10
2023-04-28T10:01:57.500Z,2.65
2023-04-28T10:06:59.739Z,2.85
2023-04-28T10:12:02.564Z,2.33
2023-04-28T10:17:06.944Z,2.62
2023-04-28T10:22:27.783Z,2.20
2023-04-28T10:27:31.418Z,2.83
2023-04-28T10:32:34.616Z,2.75
2023-04-28T10:38:13.868Z,3.00
2023-04-28T10:43:25.707Z,3.03
2023-04-28T10:48:34.359Z,3.03
2023-04-28T10:53:45.819Z,3.10
2023-04-28T10:58:50.857Z,2.80
2023-04-28T11:04:01.303Z,2.87
2023-04-28T11:09:32.841Z,2.72
2023-04-28T11:14:36.577Z,2.25
2023-04-28T11:19:44.770Z,2.13
2023-04-28T11:25:01.707Z,2.42
2023-04-28T11:30:05.915Z,2.30
2023-04-28T11:35:09.887Z,2.90
2023-04-28T11:40:13.294Z,2.70
2023-04-28T11:45:15.383Z,2.67
2023-04-28T11:50:17.729Z,2.37
2023-04-28T11:55:19.830Z,2.40
2023-04-28T12:00:22.747Z,2.70
2023-04-28T12:05:25.029Z,2.55
2023-04-28T12:10:27.248Z,2.50
2023-04-28T12:15:41.161Z,2.72
2023-04-28T12:20:43.635Z,2.47
2023-04-28T12:25:47.278Z,2.37
2023-04-28T12:30:49.563Z,2.70
2023-04-28T12:35:52.337Z,2.53
2023-04-28T12:40:55.093Z,2.80
2023-04-28T12:45:57.314Z,2.80
2023-04-28T12:50:59.424Z,2.70
2023-04-28T12:56:01.504Z,2.30
2023-04-28T13:01:03.616Z,2.50
2023-04-28T13:06:06.082Z,2.87
2023-04-28T13:11:21.900Z,3.42
2023-04-28T13:16:29.393Z,2.50
2023-04-28T13:21:32.323Z,2.20
2023-04-28T13:26:34.827Z,2.60
2023-04-28T13:31:37.189Z,2.37
2023-04-28T13:36:39.377Z,2.03
2023-04-28T13:41:41.654Z,2.20
2023-04-28T13:46:43.881Z,2.28
2023-04-28T13:51:45.957Z,2.10
2023-04-28T13:56:48.243Z,1.98
2023-04-28T14:01:50.481Z,2.30
2023-04-28T14:06:52.706Z,2.70
2023-04-28T14:11:58.519Z,2.43
2023-04-28T14:17:00.742Z,1.95
2023-04-28T14:22:03.510Z,1.77
2023-04-28T14:27:05.702Z,1.97
2023-04-28T14:32:07.809Z,2.00
2023-04-28T14:37:10.492Z,2.00
2023-04-28T14:42:12.586Z,2.57
2023-04-28T14:47:14.742Z,2.10
2023-04-28T14:52:18.002Z,2.40
2023-04-28T14:57:20.357Z,2.50
2023-04-28T15:02:27.952Z,2.00
2023-04-28T15:07:31.861Z,2.50
2023-04-28T15:12:34.492Z,2.12
2023-04-28T15:17:36.594Z,2.33
2023-04-28T15:22:38.800Z,2.42
2023-04-28T15:27:40.849Z,2.45
2023-04-28T15:32:44.009Z,4.17
2023-04-28T15:37:52.095Z,4.12
2023-04-28T15:42:54.415Z,7.82
2023-04-28T15:47:56.531Z,5.83
2023-04-28T15:52:58.706Z,5.50
2023-04-28T15:58:01.281Z,5.82
2023-04-28T16:03:03.752Z,9.70
2023-04-28T16:08:06.056Z,9.07
2023-04-28T16:13:12.368Z,4.70
2023-04-28T16:18:14.535Z,3.45
2023-04-28T16:23:16.956Z,2.50
2023-04-28T16:28:19.017Z,2.30
2023-04-28T16:33:21.090Z,2.20
2023-04-28T16:38:23.250Z,2.27
2023-04-28T16:43:25.597Z,2.50
2023-04-28T16:48:27.959Z,2.30
2023-04-28T16:53:30.072Z,2.22
2023-04-28T16:58:32.175Z,2.50
2023-04-28T17:03:41.010Z,3.08
2023-04-28T17:08:43.418Z,2.20
2023-04-28T17:13:47.071Z,2.60
2023-04-28T17:18:49.157Z,2.58
2023-04-28T17:23:51.830Z,2.42
2023-04-28T17:28:55.665Z,2.20
2023-04-28T17:33:59.827Z,2.70
2023-04-28T17:39:04.584Z,2.75
2023-04-28T17:44:06.727Z,2.60
2023-04-28T17:49:08.820Z,3.03
2023-04-28T17:54:10.903Z,4.80
2023-04-28T17:59:14.566Z,7.62
2023-04-28T18:04:16.718Z,10.57
2023-04-28T18:09:18.953Z,16.45
2023-04-28T18:14:21.041Z,20.02
2023-04-28T18:19:23.894Z,22.40
2023-04-28T18:24:26.198Z,22.73
2023-04-28T18:29:28.353Z,21.27
2023-04-28T18:34:30.549Z,25.40
2023-04-28T18:39:32.608Z,28.43
2023-04-28T18:44:34.666Z,30.45
2023-04-28T18:49:38.112Z,32.28
2023-04-28T18:54:40.327Z,33.90
2023-04-28T18:59:42.541Z,36.05
2023-04-28T19:04:45.801Z,35.72
2023-04-28T19:09:48.074Z,34.13
2023-04-28T19:14:51.345Z,33.00
2023-04-28T19:19:57.307Z,33.95
2023-04-28T19:25:00.351Z,34.40
2023-04-28T19:30:04.319Z,34.57
2023-04-28T19:35:07.386Z,33.33
2023-04-28T19:40:10.301Z,34.88
2023-04-28T19:45:12.508Z,34.13
2023-04-28T19:50:14.748Z,34.20
2023-04-28T19:55:19.950Z,34.78
2023-04-28T20:00:22.349Z,34.20
2023-04-28T20:05:24.459Z,37.20
2023-04-28T20:10:26.524Z,38.35
2023-04-28T20:15:28.599Z,40.12
2023-04-28T20:20:30.692Z,36.30
2023-04-28T20:25:36.625Z,37.63
2023-04-28T20:30:40.235Z,35.60
2023-04-28T20:35:42.965Z,33.57
2023-04-28T20:40:45.590Z,32.42
2023-04-28T20:45:47.964Z,30.37
2023-04-28T20:50:53.112Z,28.47
2023-04-28T20:55:55.319Z,24.03
2023-04-28T21:00:57.596Z,20.33
2023-04-28T21:05:59.872Z,19.60
2023-04-28T21:11:02.104Z,16.60
2023-04-28T21:16:04.516Z,12.37
2023-04-28T21:21:06.736Z,12.73
2023-04-28T21:26:09.959Z,10.47
2023-04-28T21:31:12.107Z,9.35
2023-04-28T21:36:14.173Z,9.07
2023-04-28T21:41:16.297Z,8.30
2023-04-28T21:46:21.786Z,8.33
2023-04-28T21:51:23.861Z,8.02
2023-04-28T21:56:25.948Z,7.87
2023-04-28T22:01:28.096Z,8.33
2023-04-28T22:06:31.479Z,7.80
2023-04-28T22:11:33.923Z,7.45
2023-04-28T22:16:36.551Z,8.07
2023-04-28T22:21:38.709Z,8.00
2023-04-28T22:26:40.866Z,7.57
2023-04-28T22:31:42.966Z,7.87
2023-04-28T22:36:47.809Z,7.87
2023-04-28T22:41:49.862Z,8.23
2023-04-28T22:46:52.048Z,8.57
2023-04-28T22:51:54.957Z,7.83
2023-04-28T22:56:57.043Z,8.60
2023-04-28T23:01:59.200Z,7.85
2023-04-28T23:07:01.417Z,7.80
2023-04-28T23:12:04.175Z,8.15
2023-04-28T23:17:06.299Z,7.78
2023-04-28T23:22:08.773Z,8.17
2023-04-28T23:27:12.120Z,9.00
2023-04-28T23:32:14.184Z,9.32
2023-04-28T23:37:16.274Z,8.98
2023-04-28T23:42:18.319Z,9.20
2023-04-28T23:52:22.857Z,8.80
2023-04-28T23:57:24.924Z,8.90
